createdAt,value
2022-07-29T00:08:53.261Z,20.36
2022-07-29T00:15:31.867Z,20.17
2022-07-29T00:42:53.308Z,19.74
2022-07-29T01:35:39.896Z,19.77
2022-07-29T01:41:54.226Z,19.47
2022-07-29T02:22:10.444Z,18.51
2022-07-29T02:27:46.862Z,18.81
2022-07-29T02:46:57.622Z,19.05
2022-07-29T02:53:42.238Z,18.90
2022-07-29T03:06:28.161Z,18.65
2022-07-29T03:22:05.337Z,18.75
2022-07-29T03:44:13.151Z,18.83
2022-07-29T03:49:40.704Z,18.94
2022-07-29T03:55:21.596Z,18.80
2022-07-29T04:01:00.654Z,18.70
2022-07-29T04:14:36.095Z,18.58
2022-07-29T04:19:46.594Z,18.63
2022-07-29T04:24:53.489Z,18.90
2022-07-29T04:30:05.587Z,18.51
2022-07-29T04:36:32.004Z,18.86
2022-07-29T04:41:41.698Z,19.13
2022-07-29T04:46:49.132Z,19.10
2022-07-29T04:52:11.939Z,18.88
2022-07-29T04:57:30.500Z,19.28
2022-07-29T05:02:42.022Z,19.40
2022-07-29T05:08:10.933Z,19.82
2022-07-29T05:13:18.765Z,19.67
2022-07-29T05:18:27.354Z,19.72
2022-07-29T05:23:43.584Z,19.66
2022-07-29T05:28:48.335Z,19.64
2022-07-29T05:33:59.707Z,19.95
2022-07-29T05:39:16.928Z,19.83
2022-07-29T05:44:25.412Z,19.76
2022-07-29T05:49:37.736Z,20.01
2022-07-29T05:54:44.762Z,20.25
2022-07-29T05:59:51.540Z,20.58
2022-07-29T06:05:02.849Z,20.79
2022-07-29T06:10:14.488Z,21.14
2022-07-29T06:15:18.733Z,21.37
2022-07-29T06:20:34.609Z,21.66
2022-07-29T06:25:49.527Z,21.74
2022-07-29T06:30:57.820Z,21.85
2022-07-29T06:36:02.021Z,21.90
2022-07-29T06:41:25.220Z,22.20
2022-07-29T06:52:09.117Z,22.55
2022-07-29T06:57:15.661Z,22.69
2022-07-29T07:02:23.073Z,22.93
2022-07-29T07:07:44.429Z,23.12
2022-07-29T07:13:01.640Z,23.06
2022-07-29T07:18:12.435Z,23.28
2022-07-29T07:23:18.608Z,23.70
2022-07-29T07:28:37.193Z,23.92
2022-07-29T07:33:44.474Z,23.92
2022-07-29T07:39:02.869Z,24.09
2022-07-29T07:44:20.358Z,24.42
2022-07-29T07:49:53.663Z,24.73
2022-07-29T07:55:25.484Z,25.05
2022-07-29T08:00:45.860Z,25.19
2022-07-29T08:05:55.565Z,25.17
2022-07-29T08:11:09.033Z,25.35
2022-07-29T08:16:21.084Z,25.33
2022-07-29T08:22:41.432Z,25.74
2022-07-29T08:34:27.042Z,26.26
2022-07-29T08:39:54.815Z,26.61
2022-07-29T08:46:10.460Z,26.86
2022-07-29T08:51:36.453Z,27.32
2022-07-29T08:57:29.407Z,27.71
2022-07-29T09:02:41.920Z,27.84
2022-07-29T09:07:49.894Z,27.85
2022-07-29T09:12:54.148Z,28.24
2022-07-29T09:17:59.511Z,28.80
2022-07-29T09:23:10.349Z,29.27
2022-07-29T09:28:17.623Z,29.62
2022-07-29T09:33:22.688Z,29.10
2022-07-29T09:38:28.394Z,29.18
2022-07-29T09:43:34.064Z,29.59
2022-07-29T09:48:38.629Z,29.66
2022-07-29T09:53:44.363Z,29.70
2022-07-29T09:58:48.664Z,30.31
2022-07-29T10:03:54.305Z,29.99
2022-07-29T10:09:15.017Z,30.16
2022-07-29T10:14:20.045Z,30.02
2022-07-29T10:19:24.542Z,30.10
2022-07-29T10:24:32.396Z,29.80
2022-07-29T10:29:37.742Z,29.86
2022-07-29T10:35:10.818Z,30.73
2022-07-29T10:40:47.331Z,30.87
2022-07-29T10:45:57.257Z,31.05
2022-07-29T10:51:04.159Z,31.10
2022-07-29T10:56:27.099Z,30.84
2022-07-29T11:01:37.178Z,31.04
2022-07-29T11:07:17.528Z,31.57
2022-07-29T11:12:52.270Z,31.93
2022-07-29T11:18:14.826Z,31.46
2022-07-29T11:23:33.815Z,31.53
2022-07-29T11:28:50.862Z,32.15
2022-07-29T11:33:56.953Z,32.26
2022-07-29T11:44:59.045Z,32.05
2022-07-29T11:50:13.481Z,32.26
2022-07-29T11:55:20.095Z,32.39
2022-07-29T12:00:31.914Z,32.66
2022-07-29T12:05:39.731Z,32.67
2022-07-29T12:10:53.158Z,32.11
2022-07-29T12:16:01.593Z,31.30
2022-07-29T12:21:06.539Z,31.25
2022-07-29T12:26:21.783Z,31.65
2022-07-29T12:31:43.537Z,32.34
2022-07-29T12:36:49.466Z,32.66
2022-07-29T12:41:53.932Z,33.14
2022-07-29T12:47:11.135Z,33.20
2022-07-29T12:52:30.473Z,33.56
2022-07-29T12:57:47.871Z,33.41
2022-07-29T13:02:59.400Z,32.83
2022-07-29T13:08:20.377Z,32.30
2022-07-29T13:13:26.296Z,32.43
2022-07-29T13:18:33.129Z,32.17
2022-07-29T13:23:38.137Z,32.19
2022-07-29T13:28:44.177Z,32.29
2022-07-29T13:33:50.045Z,32.51
2022-07-29T13:38:54.179Z,32.66
2022-07-29T13:43:58.316Z,32.95
2022-07-29T13:49:06.706Z,32.87
2022-07-29T13:54:11.703Z,32.86
2022-07-29T13:59:15.832Z,32.29
2022-07-29T14:04:24.011Z,32.02
2022-07-29T14:09:28.729Z,31.94
2022-07-29T14:14:33.791Z,31.86
2022-07-29T14:19:40.853Z,31.68
2022-07-29T14:24:45.560Z,31.61
2022-07-29T14:29:50.176Z,31.43
2022-07-29T14:34:55.981Z,31.26
2022-07-29T14:40:04.424Z,31.13
2022-07-29T14:45:10.575Z,30.98
2022-07-29T14:50:17.273Z,30.84
2022-07-29T14:55:36.522Z,30.68
2022-07-29T15:00:40.687Z,30.56
2022-07-29T15:05:47.754Z,30.52
2022-07-29T15:10:52.519Z,30.52
2022-07-29T15:16:00.066Z,30.49
2022-07-29T15:21:09.592Z,30.33
2022-07-29T15:26:13.547Z,30.34
2022-07-29T15:31:17.706Z,30.41
2022-07-29T15:36:50.966Z,30.18
2022-07-29T15:41:47.632Z,30.12
2022-07-29T15:47:07.493Z,30.15
2022-07-29T15:52:13.039Z,30.15
2022-07-29T15:57:17.625Z,30.10
2022-07-29T16:02:21.912Z,29.97
2022-07-29T16:07:31.475Z,29.88
2022-07-29T16:12:36.921Z,29.82
2022-07-29T16:17:40.995Z,29.75
2022-07-29T16:22:46.684Z,29.61
2022-07-29T16:27:50.793Z,29.34
2022-07-29T16:32:54.991Z,29.17
2022-07-29T16:38:00.651Z,29.19
2022-07-29T16:43:06.578Z,29.28
2022-07-29T16:48:11.102Z,29.18
2022-07-29T16:53:17.315Z,29.06
2022-07-29T16:58:21.592Z,28.93
2022-07-29T17:03:25.799Z,28.82
2022-07-29T17:08:31.425Z,28.69
2022-07-29T17:13:35.607Z,28.44
2022-07-29T17:18:39.932Z,28.37
2022-07-29T17:23:45.665Z,28.19
2022-07-29T17:28:49.715Z,27.97
2022-07-29T17:33:58.342Z,27.81
2022-07-29T17:39:08.486Z,27.66
2022-07-29T17:44:12.706Z,27.38
2022-07-29T17:49:17.624Z,27.09
2022-07-29T17:54:23.134Z,26.91
2022-07-29T17:59:30.893Z,26.63
2022-07-29T18:04:36.223Z,26.57
2022-07-29T18:09:41.787Z,26.43
2022-07-29T18:14:45.942Z,26.39
2022-07-29T18:19:50.066Z,26.20
2022-07-29T18:24:55.611Z,26.21
2022-07-29T18:29:59.913Z,26.02
2022-07-29T18:35:09.567Z,26.02
2022-07-29T18:40:15.301Z,25.92
2022-07-29T18:45:19.911Z,25.73
2022-07-29T18:50:29.147Z,25.60
2022-07-29T18:55:35.358Z,25.69
2022-07-29T19:00:39.535Z,25.48
2022-07-29T19:05:45.902Z,25.35
2022-07-29T19:10:52.037Z,25.26
2022-07-29T19:15:56.233Z,25.25
2022-07-29T19:21:00.393Z,24.99
2022-07-29T19:26:06.669Z,24.93
2022-07-29T19:31:13.466Z,24.74
2022-07-29T19:36:17.725Z,24.73
2022-07-29T19:41:25.018Z,24.73
2022-07-29T19:46:30.062Z,24.74
2022-07-29T19:51:34.881Z,24.66
2022-07-29T19:56:42.149Z,24.58
2022-07-29T20:01:46.784Z,24.45
2022-07-29T20:06:51.751Z,24.57
2022-07-29T20:11:57.307Z,24.51
2022-07-29T20:17:02.265Z,24.26
2022-07-29T20:22:07.164Z,24.18
2022-07-29T20:27:13.407Z,23.95
2022-07-29T20:32:17.963Z,24.04
2022-07-29T20:37:22.296Z,24.05
2022-07-29T20:42:27.773Z,23.87
2022-07-29T20:47:31.997Z,23.93
2022-07-29T20:52:36.316Z,23.88
2022-07-29T20:57:42.184Z,23.79
2022-07-29T21:02:46.817Z,23.79
2022-07-29T21:07:54.309Z,23.78
2022-07-29T21:13:02.378Z,23.55
2022-07-29T21:18:16.411Z,23.58
2022-07-29T21:23:20.630Z,23.57
2022-07-29T21:28:31.188Z,23.61
2022-07-29T21:33:35.297Z,23.57
2022-07-29T21:38:39.718Z,23.58
2022-07-29T21:43:46.196Z,23.62
2022-07-29T21:48:50.374Z,23.56
2022-07-29T21:53:54.627Z,23.55
2022-07-29T21:59:00.623Z,23.46
2022-07-29T22:04:04.838Z,23.51
2022-07-29T22:09:09.147Z,23.36
2022-07-29T22:14:19.469Z,23.04
2022-07-29T22:19:27.406Z,23.01
2022-07-29T22:24:33.136Z,23.12
2022-07-29T22:29:39.957Z,23.26
2022-07-29T22:34:44.047Z,23.20
2022-07-29T22:39:48.140Z,23.43
2022-07-29T22:44:53.758Z,23.47
2022-07-29T22:49:57.837Z,23.31
2022-07-29T22:55:02.303Z,23.50
2022-07-29T23:00:09.327Z,23.42
2022-07-29T23:05:15.848Z,23.36
2022-07-29T23:10:20.682Z,23.29
2022-07-29T23:15:26.125Z,23.39
2022-07-29T23:20:30.294Z,23.31
2022-07-29T23:25:34.620Z,23.32
2022-07-29T23:30:40.779Z,23.18
2022-07-29T23:35:45.001Z,23.05
2022-07-29T23:40:49.104Z,22.89
2022-07-29T23:45:54.628Z,22.81
2022-07-29T23:51:02.294Z,22.75
2022-07-29T23:56:07.538Z,22.93
